Time;durP1;ratioP1;P1;durP2;ratioP2;P2;SDS_P1;SDS_P2;PMS_P1;PMS_P2;Temp;Humidity;BMP_temperature;BMP_pressure;BME280_temperature;BME280_humidity;BME280_pressure;Samples;Min_cycle;Max_cycle;Signal;HPM_P1;HPM_P2
2021/05/23 04:01:21;;;;;;;1.90;1.80;;;;;;;;;;5990988;22;88951;-85
2021/05/23 04:03:47;;;;;;;1.80;1.80;;;9.20;99.90;;;;;;4952022;28;88095;-84
2021/05/23 04:06:13;;;;;;;1.60;1.60;;;9.30;99.90;;;;;;4975438;28;87063;-85
2021/05/23 04:08:39;;;;;;;1.63;1.52;;;9.30;99.90;;;;;;4977191;28;88080;-85
2021/05/23 04:11:16;;;;;;;1.60;1.50;;;9.40;99.90;;;;;;4974888;28;87598;-84
2021/05/23 04:13:42;;;;;;;1.50;1.40;;;9.40;99.90;;;;;;4969609;28;87005;-85
2021/05/23 04:16:13;;;;;;;1.27;1.27;;;9.50;99.90;;;;;;4978740;28;87030;-85
2021/05/23 04:18:39;;;;;;;1.73;1.73;;;9.50;99.90;;;;;;4984662;28;88162;-86
2021/05/23 04:21:05;;;;;;;1.80;1.70;;;9.50;99.90;;;;;;4983711;28;87071;-84
2021/05/23 04:23:31;;;;;;;1.60;1.60;;;9.60;99.90;;;;;;4986892;28;86760;-84
2021/05/23 04:25:57;;;;;;;1.50;1.50;;;9.60;99.90;;;;;;4973232;28;86214;-85
2021/05/23 04:28:24;;;;;;;1.75;1.65;;;9.60;99.90;;;;;;4982243;28;87164;-84
2021/05/23 04:30:50;;;;;;;1.73;1.73;;;9.60;99.90;;;;;;4974618;28;86994;-85
2021/05/23 04:33:16;;;;;;;1.80;1.80;;;9.60;99.90;;;;;;4971576;28;87854;-84
2021/05/23 04:35:43;;;;;;;1.33;1.30;;;9.60;99.90;;;;;;4975684;28;86939;-85
2021/05/23 04:38:09;;;;;;;1.50;1.50;;;9.60;99.90;;;;;;4984971;28;87670;-84
2021/05/23 04:40:35;;;;;;;1.90;1.80;;;9.50;99.90;;;;;;4984943;28;86994;-86
2021/05/23 04:43:02;;;;;;;1.52;1.52;;;9.60;99.90;;;;;;4972462;28;86803;-84
2021/05/23 04:45:29;;;;;;;1.88;1.77;;;9.60;99.90;;;;;;4981293;28;87128;-84
2021/05/23 04:47:55;;;;;;;1.60;1.60;;;9.60;99.90;;;;;;4993022;28;87338;-85
2021/05/23 04:50:21;;;;;;;1.73;1.73;;;9.60;99.90;;;;;;4988294;28;86831;-83
2021/05/23 04:52:47;;;;;;;1.77;1.67;;;9.60;99.90;;;;;;4987443;28;86148;-84
2021/05/23 04:55:13;;;;;;;1.73;1.63;;;9.60;99.90;;;;;;4989824;28;87113;-86
2021/05/23 04:57:39;;;;;;;1.60;1.50;;;9.70;99.90;;;;;;4974266;28;88816;-84
2021/05/23 05:00:08;;;;;;;1.63;1.52;;;9.70;99.90;;;;;;4990897;28;88276;-84
2021/05/23 05:02:34;;;;;;;1.85;1.75;;;9.70;99.90;;;;;;4949639;28;90015;-82
2021/05/23 05:05:00;;;;;;;2.28;2.08;;;9.70;99.90;;;;;;4935426;28;87077;-86
2021/05/23 05:07:26;;;;;;;1.98;1.90;;;9.80;99.90;;;;;;4927705;28;87447;-83
2021/05/23 05:09:51;;;;;;;1.80;1.70;;;9.80;99.90;;;;;;4921038;28;86731;-83
2021/05/23 05:12:17;;;;;;;1.60;1.60;;;9.70;99.90;;;;;;4920004;28;86980;-85
2021/05/23 05:14:43;;;;;;;1.90;1.80;;;9.70;99.90;;;;;;4927647;28;86206;-86
2021/05/23 05:17:08;;;;;;;2.10;2.00;;;9.70;99.90;;;;;;4927134;28;87262;-85
2021/05/23 05:19:34;;;;;;;2.13;2.03;;;9.80;99.90;;;;;;4917203;28;90739;-85
2021/05/23 05:22:00;;;;;;;2.03;1.92;;;9.70;99.90;;;;;;4929880;28;88029;-86
2021/05/23 05:24:26;;;;;;;2.03;1.92;;;9.60;99.90;;;;;;4917213;28;86417;-86
2021/05/23 05:26:51;;;;;;;2.53;2.38;;;9.70;99.90;;;;;;4912860;28;87370;-85
2021/05/23 05:29:17;;;;;;;2.60;2.13;;;9.70;99.90;;;;;;4928070;28;86839;-83
2021/05/23 05:31:44;;;;;;;1.90;1.80;;;9.70;99.90;;;;;;4929501;28;86807;-84
2021/05/23 05:34:09;;;;;;;2.20;2.10;;;9.80;99.90;;;;;;4927688;28;86668;-85
2021/05/23 05:36:36;;;;;;;2.22;2.13;;;9.80;99.90;;;;;;4936062;28;86694;-85
2021/05/23 05:39:03;;;;;;;2.03;1.92;;;9.80;99.90;;;;;;4941657;28;87133;-83
2021/05/23 05:41:28;;;;;;;1.83;1.73;;;9.80;99.90;;;;;;4947769;28;86485;-83
2021/05/23 05:43:54;;;;;;;1.75;1.65;;;9.90;99.90;;;;;;4930292;28;87018;-85
2021/05/23 05:46:20;;;;;;;1.60;1.52;;;9.90;99.90;;;;;;4923634;28;88562;-84
2021/05/23 05:48:46;;;;;;;1.83;1.83;;;9.80;99.90;;;;;;4927843;28;89024;-85
2021/05/23 05:51:15;;;;;;;1.55;1.45;;;9.90;99.90;;;;;;4928552;28;86380;-82
2021/05/23 05:53:41;;;;;;;1.55;1.45;;;9.90;99.90;;;;;;4937395;28;86323;-85
2021/05/23 05:56:07;;;;;;;2.45;1.60;;;9.90;99.90;;;;;;4940069;28;88450;-85
2021/05/23 05:58:33;;;;;;;1.58;1.48;;;10.00;99.90;;;;;;4939597;28;86979;-83
2021/05/23 06:00:59;;;;;;;1.98;1.88;;;9.90;99.90;;;;;;4928141;28;86948;-85
2021/05/23 06:03:25;;;;;;;2.10;2.00;;;10.00;99.90;;;;;;4965313;28;86201;-83
2021/05/23 06:05:50;;;;;;;1.88;1.77;;;10.10;99.90;;;;;;4959148;28;87760;-84
2021/05/23 06:08:16;;;;;;;1.75;1.70;;;10.10;99.90;;;;;;4947901;28;88334;-86
2021/05/23 06:10:42;;;;;;;1.75;1.65;;;10.10;99.90;;;;;;4964585;28;88357;-85
2021/05/23 06:13:08;;;;;;;1.60;1.50;;;10.20;99.90;;;;;;4961564;28;86538;-84
2021/05/23 06:15:33;;;;;;;1.95;1.85;;;10.20;99.90;;;;;;4967499;28;87117;-86
2021/05/23 06:18:00;;;;;;;2.13;2.00;;;10.20;99.90;;;;;;4966033;28;87533;-85
2021/05/23 06:20:25;;;;;;;1.67;1.63;;;10.20;99.90;;;;;;4958972;28;86852;-84
2021/05/23 06:22:51;;;;;;;2.00;1.90;;;10.20;99.90;;;;;;4965641;28;86892;-87
2021/05/23 06:25:17;;;;;;;1.50;1.42;;;10.10;99.90;;;;;;4967263;28;86944;-85
2021/05/23 06:27:43;;;;;;;1.80;1.70;;;;;;;;;;4972769;28;86944;-88
2021/05/23 06:30:09;;;;;;;2.08;1.98;;;10.00;99.90;;;;;;4937350;28;87048;-85
2021/05/23 06:32:35;;;;;;;1.60;1.60;;;10.00;99.90;;;;;;4966645;28;86554;-85
2021/05/23 06:35:02;;;;;;;1.67;1.60;;;10.20;99.90;;;;;;4962022;28;88280;-83
2021/05/23 06:37:28;;;;;;;2.95;1.70;;;10.30;99.90;;;;;;4966834;28;88259;-83
2021/05/23 06:39:56;;;;;;;1.77;1.70;;;10.40;99.90;;;;;;4961466;28;86703;-85
2021/05/23 06:42:22;;;;;;;2.03;1.92;;;10.60;99.90;;;;;;4962799;28;87427;-86
2021/05/23 06:44:48;;;;;;;2.10;2.00;;;10.60;99.90;;;;;;4961134;28;87671;-85
2021/05/23 06:47:14;;;;;;;2.25;2.15;;;10.80;99.90;;;;;;4983434;28;87046;-83
2021/05/23 06:49:40;;;;;;;2.17;1.98;;;10.90;99.90;;;;;;4972037;28;86300;-87
2021/05/23 06:52:07;;;;;;;2.22;1.98;;;11.00;99.90;;;;;;4969232;28;86454;-83
2021/05/23 06:54:32;;;;;;;1.90;1.80;;;11.00;99.90;;;;;;4973292;28;86849;-85
2021/05/23 06:56:58;;;;;;;2.08;1.75;;;11.20;99.90;;;;;;4973673;28;87020;-85
2021/05/23 06:59:24;;;;;;;1.88;1.77;;;11.10;99.90;;;;;;4969667;28;87777;-84
2021/05/23 07:01:51;;;;;;;2.00;1.90;;;;;;;;;;4973173;28;87198;-84
2021/05/23 07:04:17;;;;;;;1.80;1.70;;;11.30;99.90;;;;;;4951792;28;88524;-83
2021/05/23 07:06:42;;;;;;;1.83;1.73;;;11.60;99.90;;;;;;4967538;28;86900;-85
2021/05/23 07:09:08;;;;;;;1.95;1.85;;;11.70;99.90;;;;;;4958315;28;86749;-84
2021/05/23 07:11:34;;;;;;;1.92;1.83;;;11.90;99.90;;;;;;4966651;28;86267;-86
2021/05/23 07:13:59;;;;;;;3.03;1.73;;;12.00;99.90;;;;;;4969876;28;86863;-83
2021/05/23 07:16:25;;;;;;;1.88;1.77;;;12.20;99.90;;;;;;4965022;28;86797;-83
2021/05/23 07:18:51;;;;;;;1.83;1.77;;;12.60;99.90;;;;;;4966763;28;87057;-84
2021/05/23 07:21:17;;;;;;;2.17;2.08;;;12.90;99.90;;;;;;4963939;28;87041;-83
2021/05/23 07:23:43;;;;;;;2.13;2.03;;;12.90;99.90;;;;;;4971550;28;89353;-85
2021/05/23 07:26:09;;;;;;;2.60;2.40;;;13.00;99.90;;;;;;4967727;28;88099;-83
2021/05/23 07:28:34;;;;;;;2.08;1.98;;;13.00;98.50;;;;;;4970382;28;86883;-86
2021/05/23 07:31:01;;;;;;;2.00;1.90;;;13.00;98.40;;;;;;4969146;28;86952;-86
2021/05/23 07:33:27;;;;;;;2.42;2.33;;;12.90;98.90;;;;;;4967604;28;88085;-86
2021/05/23 07:35:53;;;;;;;1.90;1.80;;;12.80;99.70;;;;;;4971020;28;88090;-87
2021/05/23 07:38:19;;;;;;;2.30;2.15;;;12.90;99.60;;;;;;4968073;28;87601;-84
2021/05/23 07:40:46;;;;;;;2.15;2.05;;;12.90;99.70;;;;;;4966244;28;86475;-88
2021/05/23 07:43:11;;;;;;;2.17;2.08;;;12.80;99.70;;;;;;4972705;28;88090;-88
2021/05/23 07:45:37;;;;;;;2.28;2.17;;;12.80;99.90;;;;;;4968954;28;86999;-87
2021/05/23 07:48:05;;;;;;;2.20;2.10;;;12.80;99.90;;;;;;4968303;28;87979;-84
2021/05/23 07:50:31;;;;;;;2.30;2.20;;;12.80;99.90;;;;;;4963102;28;86989;-87
2021/05/23 07:52:56;;;;;;;2.15;2.05;;;13.00;99.90;;;;;;4967638;28;87019;-87
2021/05/23 07:55:22;;;;;;;2.03;1.92;;;13.10;99.90;;;;;;4969704;28;86855;-86
2021/05/23 07:57:48;;;;;;;2.03;1.92;;;13.30;99.90;;;;;;4966618;28;86874;-85
2021/05/23 08:00:15;;;;;;;2.22;2.13;;;13.50;99.90;;;;;;4965196;28;87008;-86
2021/05/23 08:02:40;;;;;;;1.95;1.85;;;13.50;99.30;;;;;;4964660;28;88125;-87
2021/05/23 08:05:07;;;;;;;1.95;1.90;;;13.60;99.10;;;;;;4963034;28;86797;-86
2021/05/23 08:07:33;;;;;;;2.85;2.75;;;13.60;98.90;;;;;;4973316;28;86979;-87
2021/05/23 08:09:58;;;;;;;2.47;2.38;;;13.60;97.80;;;;;;4970694;28;86965;-86
2021/05/23 08:12:24;;;;;;;2.47;2.38;;;13.70;97.70;;;;;;4966672;28;89633;-85
2021/05/23 08:14:50;;;;;;;2.35;2.25;;;13.90;97.60;;;;;;4965388;28;88667;-86
2021/05/23 08:17:16;;;;;;;2.72;2.63;;;13.90;96.90;;;;;;4949042;28;87149;-86
2021/05/23 08:19:42;;;;;;;2.55;2.35;;;14.00;96.70;;;;;;4965682;28;86928;-87
2021/05/23 08:22:10;;;;;;;3.10;3.00;;;14.20;97.00;;;;;;4964720;28;87194;-84
2021/05/23 08:24:35;;;;;;;2.75;2.65;;;14.40;96.00;;;;;;4965039;28;86985;-86
2021/05/23 08:27:02;;;;;;;3.35;3.15;;;14.60;94.80;;;;;;4974632;28;86732;-86
2021/05/23 08:29:30;;;;;;;3.20;3.00;;;14.30;93.80;;;;;;4962476;28;86364;-86
2021/05/23 08:32:00;;;;;;;3.28;3.17;;;14.10;94.40;;;;;;4972540;28;88577;-86
2021/05/23 08:34:27;;;;;;;2.60;2.50;;;14.10;94.70;;;;;;4964650;28;86974;-86
2021/05/23 08:36:52;;;;;;;3.25;3.05;;;14.60;94.40;;;;;;4959696;28;87820;-87
2021/05/23 08:39:18;;;;;;;4.32;4.03;;;14.80;92.10;;;;;;4947627;28;87322;-86
2021/05/23 08:41:48;;;;;;;3.47;3.28;;;15.40;93.10;;;;;;4966447;28;87735;-86
2021/05/23 08:44:19;;;;;;;2.60;2.50;;;15.50;90.20;;;;;;4966800;28;87389;-84
2021/05/23 08:46:47;;;;;;;2.65;2.55;;;15.40;90.60;;;;;;4963537;28;87053;-85
2021/05/23 08:49:21;;;;;;;2.30;2.20;;;16.10;92.40;;;;;;4966222;28;86743;-85
2021/05/23 08:51:47;;;;;;;2.50;2.40;;;17.10;91.70;;;;;;4965939;28;86793;-88
2021/05/23 08:54:14;;;;;;;2.83;2.72;;;16.80;84.90;;;;;;4957165;28;88783;-87
2021/05/23 08:56:41;;;;;;;2.72;2.63;;;17.20;86.70;;;;;;4966153;28;87037;-86
2021/05/23 08:59:08;;;;;;;2.20;2.10;;;17.40;86.10;;;;;;4969565;28;86695;-87
2021/05/23 09:01:34;;;;;;;2.53;2.42;;;17.10;86.00;;;;;;4969480;28;88538;-86
2021/05/23 09:04:02;;;;;;;3.00;2.90;;;16.60;85.40;;;;;;4950373;28;89582;-85
2021/05/23 09:06:35;;;;;;;2.30;2.20;;;15.80;86.60;;;;;;4967957;28;86935;-85
2021/05/23 09:09:08;;;;;;;2.13;2.00;;;15.30;86.10;;;;;;4967140;28;86932;-84
2021/05/23 09:11:34;;;;;;;2.70;2.60;;;15.20;87.50;;;;;;4962829;28;87554;-86
2021/05/23 09:14:01;;;;;;;2.30;2.20;;;14.60;86.80;;;;;;4965598;28;86972;-86
2021/05/23 09:16:39;;;;;;;3.20;3.10;;;14.60;89.80;;;;;;4967841;28;86992;-86
2021/05/23 09:19:05;;;;;;;3.28;3.17;;;14.60;89.50;;;;;;4967768;28;86361;-85
2021/05/23 09:21:35;;;;;;;3.10;3.00;;;14.20;90.50;;;;;;4965884;28;89163;-85
2021/05/23 09:24:09;;;;;;;2.10;2.00;;;14.30;88.40;;;;;;4966764;28;87316;-85
2021/05/23 09:26:42;;;;;;;2.45;2.35;;;14.40;89.60;;;;;;4969080;28;87950;-85
2021/05/23 09:29:12;;;;;;;3.00;2.75;;;14.30;88.70;;;;;;4965675;28;87067;-86
2021/05/23 09:31:38;;;;;;;2.90;2.80;;;14.20;89.20;;;;;;4967660;28;87307;-85
2021/05/23 09:34:05;;;;;;;2.60;2.50;;;14.10;88.50;;;;;;4965763;28;88285;-86
2021/05/23 09:36:46;;;;;;;3.15;2.95;;;14.30;89.40;;;;;;4963469;28;86572;-86
2021/05/23 09:39:11;;;;;;;2.13;2.03;;;14.50;89.80;;;;;;4969971;28;86780;-86
2021/05/23 09:41:40;;;;;;;2.13;2.03;;;14.50;90.00;;;;;;4972182;28;88654;-86
2021/05/23 09:44:24;;;;;;;3.50;3.30;;;14.60;89.70;;;;;;4969758;28;86472;-85
2021/05/23 09:47:04;;;;;;;3.15;2.95;;;14.00;86.60;;;;;;4948618;28;86995;-83
2021/05/23 09:49:40;;;;;;;3.60;3.33;;;13.10;91.60;;;;;;4954825;28;86991;-83
2021/05/23 09:52:10;;;;;;;3.15;2.95;;;12.60;92.00;;;;;;4964596;28;89204;-83
2021/05/23 09:54:50;;;;;;;3.30;3.05;;;12.20;92.90;;;;;;4948388;28;91570;-84
2021/05/23 09:57:20;;;;;;;2.92;2.72;;;11.80;94.50;;;;;;4964520;28;86812;-84
2021/05/23 09:59:57;;;;;;;7.50;2.67;;;11.90;94.90;;;;;;4966022;28;86259;-84
2021/05/23 10:02:23;;;;;;;3.72;2.75;;;13.70;96.10;;;;;;4972036;28;87808;-83
2021/05/23 10:04:48;;;;;;;4.22;4.03;;;17.00;93.80;;;;;;4982355;28;87436;-84
2021/05/23 10:07:14;;;;;;;3.22;3.13;;;20.30;85.80;;;;;;4978354;28;86711;-86
2021/05/23 10:09:40;;;;;;;3.55;3.00;;;23.00;69.50;;;;;;4972059;28;85556;-87
2021/05/23 10:12:09;;;;;;;4.45;4.00;;;25.90;65.00;;;;;;4966741;28;86923;-87
2021/05/23 10:14:36;;;;;;;4.32;3.88;;;27.50;53.40;;;;;;4950225;28;88585;-86
2021/05/23 10:17:04;;;;;;;7.03;6.72;;;28.80;52.10;;;;;;4970044;28;87391;-86
2021/05/23 10:19:31;;;;;;;4.60;4.32;;;30.20;46.80;;;;;;4979582;28;86501;-87
2021/05/23 10:22:00;;;;;;;2.60;2.50;;;31.90;44.90;;;;;;4967126;28;87026;-87
2021/05/23 10:24:28;;;;;;;2.60;2.50;;;32.90;39.90;;;;;;4965496;28;86973;-87
2021/05/23 10:26:59;;;;;;;2.50;2.40;;;33.00;36.40;;;;;;4964415;28;86940;-87
2021/05/23 10:29:26;;;;;;;2.42;2.28;;;31.50;39.00;;;;;;4966276;28;86923;-87
2021/05/23 10:32:11;;;;;;;2.30;2.20;;;31.50;42.10;;;;;;4965661;28;87654;-87
2021/05/23 10:34:42;;;;;;;2.20;2.10;;;33.40;38.70;;;;;;4965276;28;86740;-88
2021/05/23 10:37:09;;;;;;;2.33;2.22;;;32.40;36.10;;;;;;4964943;28;87075;-88
2021/05/23 10:39:38;;;;;;;2.22;2.13;;;31.70;38.10;;;;;;4965849;28;86921;-87
2021/05/23 10:42:05;;;;;;;2.20;2.10;;;32.40;38.40;;;;;;4966240;28;87808;-87
2021/05/23 10:44:42;;;;;;;2.38;2.28;;;31.40;38.00;;;;;;4965735;28;88356;-88
2021/05/23 10:47:10;;;;;;;2.20;2.10;;;30.00;39.10;;;;;;4966894;28;87071;-88
2021/05/23 10:49:36;;;;;;;2.38;2.28;;;28.00;39.00;;;;;;4967651;28;86907;-87
2021/05/23 10:52:03;;;;;;;2.45;2.05;;;25.90;42.70;;;;;;4972698;28;86853;-86
2021/05/23 10:54:28;;;;;;;2.90;2.25;;;24.80;43.20;;;;;;4966065;28;87207;-86
2021/05/23 10:57:04;;;;;;;2.05;1.95;;;23.50;45.70;;;;;;4965552;28;87028;-87
2021/05/23 10:59:32;;;;;;;16.42;5.07;;;23.00;48.20;;;;;;4955150;28;86527;-87
2021/05/23 11:01:58;;;;;;;18.50;9.85;;;;;;;;;;4963799;28;87334;-87
2021/05/23 11:04:33;;;;;;;29.95;9.77;;;22.00;49.20;;;;;;4973946;28;87313;-87
2021/05/23 11:07:10;;;;;;;5.18;4.45;;;21.60;50.80;;;;;;4961526;28;88083;-86
2021/05/23 11:09:36;;;;;;;20.85;7.30;;;21.20;50.50;;;;;;4965324;28;87053;-85
2021/05/23 11:12:13;;;;;;;10.93;4.40;;;20.70;53.20;;;;;;4963902;28;88144;-86
2021/05/23 11:14:39;;;;;;;26.67;9.88;;;20.50;54.20;;;;;;4963608;28;87325;-87
2021/05/23 11:17:08;;;;;;;18.25;6.90;;;21.30;55.40;;;;;;4946896;28;87505;-87
2021/05/23 11:19:34;;;;;;;4.18;3.22;;;22.10;51.30;;;;;;4964559;28;86998;-87
2021/05/23 11:22:00;;;;;;;17.60;7.05;;;22.20;50.30;;;;;;4964610;28;87566;-86
2021/05/23 11:24:31;;;;;;;3.40;3.08;;;22.00;51.50;;;;;;4964301;28;86911;-86
2021/05/23 11:27:12;;;;;;;47.30;14.32;;;21.70;50.00;;;;;;4970729;28;86784;-87
2021/05/23 11:29:43;;;;;;;17.25;8.40;;;21.10;53.70;;;;;;4966482;28;86958;-86
2021/05/23 11:32:14;;;;;;;19.65;7.63;;;20.70;53.90;;;;;;4954210;28;89220;-84
2021/05/23 11:34:40;;;;;;;27.73;8.65;;;20.30;55.50;;;;;;4963699;28;87675;-86
2021/05/23 11:37:05;;;;;;;11.55;5.72;;;19.80;54.40;;;;;;4964654;28;87113;-86
2021/05/23 11:39:32;;;;;;;30.95;10.70;;;19.50;57.30;;;;;;4948914;28;87047;-86
2021/05/23 11:41:58;;;;;;;6.82;4.70;;;19.40;56.70;;;;;;4964598;28;88619;-85
2021/05/23 11:44:37;;;;;;;12.90;4.68;;;20.90;56.90;;;;;;4969286;28;87354;-87
2021/05/23 11:47:04;;;;;;;6.60;4.20;;;23.70;51.10;;;;;;4972834;28;87506;-87
2021/05/23 11:49:30;;;;;;;4.28;3.42;;;26.80;47.90;;;;;;4969342;28;85883;-86
2021/05/23 11:52:05;;;;;;;3.95;3.40;;;29.50;43.80;;;;;;4973250;28;87841;-86
2021/05/23 11:54:31;;;;;;;3.83;2.88;;;30.80;39.70;;;;;;4963432;28;87034;-88
2021/05/23 11:56:57;;;;;;;6.30;4.35;;;30.50;39.20;;;;;;4970939;28;87824;-87
2021/05/23 11:59:34;;;;;;;7.05;3.53;;;29.60;38.50;;;;;;4976505;28;86936;-87
2021/05/23 12:02:00;;;;;;;2.80;2.60;;;28.20;40.00;;;;;;4972461;28;88841;-87
2021/05/23 12:04:26;;;;;;;2.35;2.10;;;26.80;41.60;;;;;;4960928;28;90175;-88
2021/05/23 12:06:56;;;;;;;6.13;4.20;;;25.70;42.00;;;;;;4981929;28;86249;-88
2021/05/23 12:09:35;;;;;;;2.55;2.40;;;24.70;44.90;;;;;;4972278;28;86795;-86
2021/05/23 12:12:03;;;;;;;3.53;2.60;;;23.60;48.10;;;;;;4958470;28;89501;-85
2021/05/23 12:14:36;;;;;;;3.40;3.05;;;22.50;51.00;;;;;;4960981;28;91580;-85
2021/05/23 12:17:19;;;;;;;7.43;4.13;;;21.40;55.40;;;;;;4972553;28;86220;-86
2021/05/23 12:19:56;;;;;;;8.05;4.07;;;20.70;56.50;;;;;;4971263;28;87013;-88
2021/05/23 12:22:22;;;;;;;4.20;3.97;;;;;;;;;;4951045;28;90132;-87
2021/05/23 12:24:50;;;;;;;3.08;2.88;;;19.90;58.30;;;;;;4970722;28;87416;-87
2021/05/23 12:27:33;;;;;;;4.05;3.25;;;19.90;59.40;;;;;;4949641;28;87022;-88
2021/05/23 12:30:22;;;;;;;2.83;2.63;;;20.00;60.90;;;;;;4967205;28;86876;-86
2021/05/23 12:32:54;;;;;;;2.65;2.55;;;20.30;60.50;;;;;;4984416;28;86763;-89
2021/05/23 12:35:28;;;;;;;2.72;2.53;;;20.90;60.30;;;;;;4986915;28;88231;-88
2021/05/23 12:37:57;;;;;;;3.30;3.00;;;22.40;55.10;;;;;;4985059;28;86661;-87
2021/05/23 12:40:27;;;;;;;3.10;2.80;;;24.40;53.50;;;;;;4987608;28;85572;-90
2021/05/23 12:43:07;;;;;;;3.05;2.80;;;26.60;49.60;;;;;;4987116;28;88014;-90
2021/05/23 12:45:33;;;;;;;2.25;2.13;;;28.50;46.10;;;;;;4980500;28;86457;-91
2021/05/23 12:47:58;;;;;;;3.03;2.83;;;29.50;44.30;;;;;;4986287;28;87062;-90
2021/05/23 12:50:33;;;;;;;2.85;2.60;;;30.70;42.20;;;;;;4987183;28;86209;-90
2021/05/23 12:52:58;;;;;;;3.15;2.80;;;31.90;39.60;;;;;;4982422;28;87178;-87
2021/05/23 12:55:25;;;;;;;2.70;2.60;;;32.60;39.50;;;;;;4986905;28;87195;-87
2021/05/23 12:57:52;;;;;;;3.00;2.80;;;33.50;37.60;;;;;;4987450;28;86851;-90
2021/05/23 13:00:20;;;;;;;2.28;2.15;;;33.90;34.80;;;;;;4984550;28;88396;-90
2021/05/23 13:02:47;;;;;;;2.42;2.33;;;34.40;32.00;;;;;;4985897;28;88698;-86
2021/05/23 13:05:17;;;;;;;4.13;3.03;;;34.20;33.10;;;;;;4987579;28;86129;-90
2021/05/23 13:07:43;;;;;;;;;;;33.60;31.50;;;;;;4987290;28;86170;-91
2021/05/23 13:10:14;;;;;;;3.28;2.97;;;33.50;31.00;;;;;;4987141;28;86150;-88
2021/05/23 13:12:40;;;;;;;2.17;2.08;;;33.30;31.80;;;;;;4985861;28;88605;-86
2021/05/23 13:15:07;;;;;;;2.60;2.50;;;33.20;32.40;;;;;;4985411;28;88121;-85
2021/05/23 13:17:39;;;;;;;3.08;2.63;;;33.20;32.30;;;;;;4991670;28;86277;-90
2021/05/23 13:20:06;;;;;;;3.17;2.97;;;33.40;31.30;;;;;;4984886;28;86949;-84
2021/05/23 13:22:33;;;;;;;2.40;2.30;;;33.70;30.70;;;;;;4962587;28;86938;-84
2021/05/23 13:24:59;;;;;;;2.50;2.40;;;33.60;31.90;;;;;;4946258;28;91076;-85
2021/05/23 13:27:24;;;;;;;2.42;2.33;;;33.60;32.20;;;;;;4963364;28;86925;-84
2021/05/23 13:29:50;;;;;;;2.50;2.40;;;33.60;31.50;;;;;;4962488;28;86098;-85
2021/05/23 13:32:17;;;;;;;4.63;4.38;;;32.80;31.50;;;;;;4962482;28;87717;-84
2021/05/23 13:34:43;;;;;;;2.15;2.05;;;33.00;32.40;;;;;;4962494;28;87174;-85
2021/05/23 13:37:08;;;;;;;2.60;2.50;;;32.30;32.60;;;;;;4956603;28;87865;-84
2021/05/23 13:39:36;;;;;;;2.40;2.30;;;31.40;33.80;;;;;;4958446;28;87095;-86
2021/05/23 13:42:01;;;;;;;2.65;2.50;;;30.50;34.00;;;;;;4939114;28;90234;-86
2021/05/23 13:44:27;;;;;;;2.70;2.60;;;30.20;35.90;;;;;;4962047;28;87179;-86
2021/05/23 13:46:53;;;;;;;2.50;2.30;;;30.20;35.40;;;;;;4961872;28;86194;-86
2021/05/23 13:49:19;;;;;;;2.35;2.25;;;30.30;36.60;;;;;;4962338;28;86955;-86
2021/05/23 13:51:46;;;;;;;2.72;2.55;;;30.40;35.70;;;;;;4962429;28;87845;-86
2021/05/23 13:54:12;;;;;;;2.47;2.38;;;30.50;35.30;;;;;;4962653;28;87279;-84
2021/05/23 13:56:39;;;;;;;2.10;2.00;;;30.10;34.50;;;;;;4963319;28;86849;-84
2021/05/23 13:59:07;;;;;;;2.55;2.45;;;30.00;35.10;;;;;;4962884;28;87052;-84
2021/05/23 14:01:34;;;;;;;3.03;2.83;;;30.20;32.70;;;;;;4961357;28;89680;-85
2021/05/23 14:04:00;;;;;;;2.30;2.20;;;30.10;33.80;;;;;;4962839;28;87380;-86
2021/05/23 14:06:25;;;;;;;2.22;2.10;;;30.30;33.60;;;;;;4947505;28;87324;-86
2021/05/23 14:08:51;;;;;;;2.50;2.30;;;30.40;34.60;;;;;;4966160;28;87135;-86
2021/05/23 14:11:17;;;;;;;2.30;2.20;;;30.20;34.00;;;;;;4963599;28;86910;-86
2021/05/23 14:13:43;;;;;;;2.53;2.40;;;30.10;34.60;;;;;;4962739;28;86974;-86
2021/05/23 14:16:08;;;;;;;2.20;2.10;;;29.90;35.10;;;;;;4962369;28;86812;-86
2021/05/23 14:18:39;;;;;;;2.17;2.08;;;29.50;34.80;;;;;;4962858;28;86354;-87
2021/05/23 14:21:07;;;;;;;2.30;2.20;;;29.40;35.00;;;;;;4962405;28;87580;-86
2021/05/23 14:23:34;;;;;;;2.20;2.10;;;29.10;35.60;;;;;;4957654;28;87683;-85
2021/05/23 14:26:00;;;;;;;4.15;3.95;;;;;;;;;;4953923;28;87997;-85
2021/05/23 14:28:26;;;;;;;2.47;2.38;;;27.90;34.50;;;;;;4962202;28;86184;-85
2021/05/23 14:30:52;;;;;;;4.80;4.60;;;27.60;38.10;;;;;;4961446;28;87408;-86
2021/05/23 14:33:23;;;;;;;4.32;4.20;;;;;;;;;;4961960;28;87079;-85
2021/05/23 14:35:49;;;;;;;2.78;2.00;;;27.20;37.60;;;;;;4962672;28;87617;-85
2021/05/23 14:38:15;;;;;;;2.20;2.10;;;27.10;38.20;;;;;;4962367;28;86921;-85
2021/05/23 14:40:41;;;;;;;2.00;1.90;;;26.80;37.30;;;;;;4961599;28;88033;-85
2021/05/23 14:43:07;;;;;;;2.10;1.90;;;26.20;36.80;;;;;;4964992;28;86406;-85
2021/05/23 14:45:33;;;;;;;2.10;2.00;;;25.70;37.70;;;;;;4981724;28;86367;-86
2021/05/23 14:48:00;;;;;;;2.50;2.40;;;25.30;39.60;;;;;;4969400;28;86979;-87
2021/05/23 14:50:28;;;;;;;2.22;2.13;;;24.40;41.00;;;;;;4965735;28;87925;-88
2021/05/23 14:52:54;;;;;;;3.42;3.22;;;;;;;;;;4963916;28;88331;-84
2021/05/23 14:55:21;;;;;;;3.08;2.88;;;22.70;42.30;;;;;;4962313;28;87031;-84
2021/05/23 14:57:47;;;;;;;2.50;2.40;;;22.30;44.40;;;;;;4960513;28;87010;-84
2021/05/23 15:00:15;;;;;;;2.10;2.00;;;21.80;44.00;;;;;;4961155;28;87613;-84
2021/05/23 15:02:46;;;;;;;2.50;2.35;;;21.30;44.60;;;;;;4945150;28;88292;-84
2021/05/23 15:05:12;;;;;;;2.10;2.00;;;20.90;45.60;;;;;;4961800;28;87418;-84
2021/05/23 15:07:38;;;;;;;3.63;3.42;;;19.70;47.30;;;;;;4955862;28;86377;-84
2021/05/23 15:10:05;;;;;;;2.38;2.17;;;20.00;46.00;;;;;;4962740;28;88327;-84
2021/05/23 15:12:32;;;;;;;4.03;3.83;;;18.90;50.50;;;;;;4962823;28;88013;-84
2021/05/23 15:14:58;;;;;;;3.47;3.33;;;18.60;48.00;;;;;;4966645;28;87924;-83
2021/05/23 15:17:25;;;;;;;1.90;1.80;;;19.00;47.60;;;;;;4974538;28;86252;-84
2021/05/23 15:19:50;;;;;;;1.75;1.65;;;18.80;48.70;;;;;;4977493;28;87629;-85
2021/05/23 15:22:16;;;;;;;2.53;2.42;;;18.80;49.40;;;;;;4981067;28;87255;-86
2021/05/23 15:24:42;;;;;;;3.55;3.38;;;19.00;53.10;;;;;;4978642;28;86460;-86
2021/05/23 15:30:24;;;;;;;3.53;3.33;;;19.40;52.80;;;;;;4962759;28;87425;-87
2021/05/23 15:32:51;;;;;;;2.20;2.10;;;19.10;50.70;;;;;;4977100;28;86869;-87
2021/05/23 15:35:17;;;;;;;3.45;3.35;;;;;;;;;;4980191;28;86902;-87
2021/05/23 15:37:43;;;;;;;2.83;2.63;;;19.30;50.20;;;;;;4964214;28;87057;-87
2021/05/23 15:40:09;;;;;;;3.88;3.65;;;20.30;51.70;;;;;;4959098;28;88575;-87
2021/05/23 15:42:35;;;;;;;3.72;3.40;;;19.80;50.00;;;;;;4964030;28;87852;-86
2021/05/23 15:45:01;;;;;;;2.25;2.15;;;19.70;48.70;;;;;;4964453;28;87246;-87
2021/05/23 15:47:26;;;;;;;2.38;2.17;;;19.90;49.30;;;;;;4965204;28;87098;-87
2021/05/23 15:49:52;;;;;;;2.13;2.03;;;20.00;49.30;;;;;;4980886;28;87371;-86
2021/05/23 15:52:18;;;;;;;2.65;2.15;;;20.10;48.20;;;;;;4971897;28;87022;-86
2021/05/23 15:54:43;;;;;;;4.07;3.88;;;19.90;47.00;;;;;;4978185;28;86828;-84
2021/05/23 15:57:09;;;;;;;2.25;2.15;;;20.40;47.30;;;;;;4961669;28;86023;-85
2021/05/23 15:59:40;;;;;;;2.10;2.00;;;20.50;47.50;;;;;;4969008;28;88146;-84
2021/05/23 16:02:06;;;;;;;2.20;2.10;;;20.60;46.70;;;;;;4953388;28;87019;-85
2021/05/23 16:04:32;;;;;;;2.88;2.67;;;20.60;46.70;;;;;;4959122;28;88045;-83
2021/05/23 16:06:57;;;;;;;2.15;1.98;;;20.60;47.10;;;;;;4967780;28;86963;-85
2021/05/23 16:09:23;;;;;;;2.50;2.20;;;20.60;47.20;;;;;;4964855;28;87990;-85
2021/05/23 16:11:49;;;;;;;2.28;2.17;;;20.60;46.60;;;;;;4959908;28;86943;-85
2021/05/23 16:14:16;;;;;;;2.42;2.22;;;20.70;46.50;;;;;;4966228;28;87025;-85
2021/05/23 16:16:44;;;;;;;3.45;3.25;;;20.10;45.40;;;;;;4965872;28;86968;-85
2021/05/23 16:19:09;;;;;;;3.92;3.63;;;20.90;48.00;;;;;;4967237;28;88738;-85
2021/05/23 16:21:35;;;;;;;2.75;2.15;;;20.50;46.70;;;;;;4969152;28;87015;-87
2021/05/23 16:24:01;;;;;;;3.80;3.60;;;20.20;47.00;;;;;;4963931;28;86960;-86
2021/05/23 16:26:27;;;;;;;3.50;3.30;;;20.30;47.90;;;;;;4962328;28;86979;-85
2021/05/23 16:28:53;;;;;;;2.20;2.03;;;20.30;48.10;;;;;;4971458;28;87973;-89
2021/05/23 16:31:19;;;;;;;2.00;1.90;;;20.30;47.90;;;;;;4968160;28;87697;-87
2021/05/23 16:33:44;;;;;;;2.67;1.95;;;20.20;48.00;;;;;;4961459;28;87062;-87
2021/05/23 16:36:10;;;;;;;2.00;1.90;;;20.10;47.70;;;;;;4969389;28;86916;-87
2021/05/23 16:38:37;;;;;;;3.53;3.42;;;19.70;47.10;;;;;;4962600;28;87274;-87
2021/05/23 16:41:08;;;;;;;3.50;3.30;;;20.00;48.50;;;;;;4965324;28;86905;-88
2021/05/23 16:43:34;;;;;;;3.60;3.30;;;20.00;47.40;;;;;;4965993;28;87005;-86
2021/05/23 16:46:01;;;;;;;3.80;3.60;;;19.00;47.30;;;;;;4968781;28;86408;-86
2021/05/23 16:48:27;;;;;;;5.78;5.10;;;;;;;;;;4977137;28;86752;-86
2021/05/23 16:50:53;;;;;;;32.47;28.40;;;19.70;47.10;;;;;;4963926;28;87184;-85
2021/05/23 16:53:19;;;;;;;31.08;26.00;;;19.00;47.10;;;;;;4967059;28;88729;-83
2021/05/23 16:55:45;;;;;;;18.55;15.93;;;19.20;47.30;;;;;;4955533;28;87054;-85